createdAt,value
2019-01-31T00:00:12.652Z,0.60
2019-01-31T00:03:31.309Z,0.60
2019-01-31T00:06:53.284Z,0.60
2019-01-31T00:10:00.321Z,0.60
2019-01-31T00:13:13.460Z,0.60
2019-01-31T00:16:37.603Z,0.60
2019-01-31T00:19:47.048Z,0.60
2019-01-31T00:23:11.763Z,0.60
2019-01-31T00:26:21.283Z,0.60
2019-01-31T00:29:42.517Z,0.60
2019-01-31T00:33:07.136Z,0.60
2019-01-31T00:36:16.638Z,0.50
2019-01-31T00:39:39.620Z,0.40
2019-01-31T00:42:55.322Z,0.30
2019-01-31T00:46:21.612Z,0.30
2019-01-31T00:49:28.468Z,0.40
2019-01-31T00:52:54.893Z,0.40
2019-01-31T00:56:26.020Z,0.40
2019-01-31T00:59:58.493Z,0.50
2019-01-31T01:03:38.325Z,0.40
2019-01-31T01:06:57.391Z,0.50
2019-01-31T01:10:09.970Z,0.50
2019-01-31T01:13:16.737Z,0.40
2019-01-31T01:16:29.382Z,0.30
2019-01-31T01:19:51.272Z,0.30
2019-01-31T01:23:00.924Z,0.30
2019-01-31T01:26:25.975Z,0.10
2019-01-31T01:29:35.663Z,0.20
2019-01-31T01:32:44.934Z,0.30
2019-01-31T01:35:57.764Z,0.30
2019-01-31T01:39:19.237Z,0.30
2019-01-31T01:42:28.052Z,0.40
2019-01-31T01:45:57.410Z,0.30
2019-01-31T01:49:12.888Z,0.30
2019-01-31T01:52:25.517Z,0.40
2019-01-31T01:55:51.941Z,0.40
2019-01-31T01:59:24.303Z,0.30
2019-01-31T02:02:56.423Z,0.30
2019-01-31T02:06:08.836Z,0.30
2019-01-31T02:09:33.866Z,0.30
2019-01-31T02:12:45.875Z,0.30
2019-01-31T02:15:52.742Z,0.30
2019-01-31T02:19:11.110Z,0.20
2019-01-31T02:22:20.888Z,0.20
2019-01-31T02:25:39.595Z,0.20
2019-01-31T02:28:52.242Z,0.20
2019-01-31T02:32:14.036Z,0.30
2019-01-31T02:35:26.916Z,0.30
2019-01-31T02:38:48.445Z,0.20
2019-01-31T02:42:03.824Z,0.30
2019-01-31T02:45:10.663Z,0.40
2019-01-31T02:48:20.443Z,0.50
2019-01-31T02:51:43.677Z,0.40
2019-01-31T02:54:59.373Z,0.50
2019-01-31T02:58:14.987Z,0.40
2019-01-31T03:01:39.774Z,0.40
2019-01-31T03:04:58.358Z,0.50
2019-01-31T03:08:11.006Z,0.50
2019-01-31T03:11:20.902Z,0.50
2019-01-31T03:14:27.728Z,0.60
2019-01-31T03:17:52.617Z,0.50
2019-01-31T03:21:07.986Z,0.40
2019-01-31T03:24:26.555Z,0.50
2019-01-31T03:27:45.363Z,0.50
2019-01-31T03:31:01.069Z,0.50
2019-01-31T03:34:13.542Z,0.30
2019-01-31T03:37:29.078Z,0.40
2019-01-31T03:40:38.637Z,0.40
2019-01-31T03:43:45.446Z,0.30
2019-01-31T03:47:13.434Z,0.40
2019-01-31T03:50:22.980Z,0.40
2019-01-31T03:53:38.502Z,0.50
2019-01-31T03:57:12.337Z,0.50
2019-01-31T04:00:30.468Z,0.50
2019-01-31T04:03:40.268Z,0.60
2019-01-31T04:06:43.962Z,0.60
2019-01-31T04:09:47.663Z,0.70
2019-01-31T04:12:51.322Z,0.60
2019-01-31T04:15:55.023Z,0.60
2019-01-31T04:18:58.657Z,0.60
2019-01-31T04:22:02.357Z,0.60
2019-01-31T04:25:06.053Z,0.40
2019-01-31T04:28:09.692Z,0.40
2019-01-31T04:31:13.422Z,0.40
2019-01-31T04:34:18.608Z,0.50
2019-01-31T04:37:22.303Z,0.60
2019-01-31T04:40:31.415Z,0.50
2019-01-31T04:43:31.314Z,0.50
2019-01-31T04:46:34.989Z,0.60
2019-01-31T04:49:38.732Z,0.50
2019-01-31T04:52:42.411Z,0.50
2019-01-31T04:55:46.052Z,0.50
2019-01-31T04:58:49.744Z,0.50
2019-01-31T05:01:53.584Z,0.50
2019-01-31T05:04:57.341Z,0.30
2019-01-31T05:08:00.977Z,0.30
2019-01-31T05:11:04.692Z,0.30
2019-01-31T05:14:08.357Z,0.30
2019-01-31T05:17:12.065Z,0.30
2019-01-31T05:20:17.334Z,0.20
2019-01-31T05:23:21.044Z,0.20
2019-01-31T05:26:24.735Z,0.10
2019-01-31T05:29:28.475Z,0.10
2019-01-31T05:32:32.144Z,0.20
2019-01-31T05:35:35.855Z,0.10
2019-01-31T05:38:39.491Z,0.20
2019-01-31T05:41:43.187Z,0.20
2019-01-31T05:44:46.832Z,0.20
2019-01-31T05:47:50.582Z,0.20
2019-01-31T05:50:54.629Z,0.00
2019-01-31T05:53:58.352Z,-0.10
2019-01-31T05:57:02.862Z,0.00
2019-01-31T06:00:15.595Z,0.00
2019-01-31T06:03:19.234Z,0.00
2019-01-31T06:06:22.967Z,-0.10
2019-01-31T06:09:26.635Z,-0.10
2019-01-31T06:12:30.342Z,0.00
2019-01-31T06:15:34.042Z,0.00
2019-01-31T06:18:37.686Z,-0.10
2019-01-31T06:21:41.391Z,-0.10
2019-01-31T06:24:45.088Z,-0.10
2019-01-31T06:27:48.743Z,-0.10
2019-01-31T06:30:52.470Z,-0.10
2019-01-31T06:33:56.189Z,-0.10
2019-01-31T06:37:02.538Z,-0.10
2019-01-31T06:40:10.647Z,-0.10
2019-01-31T06:43:14.659Z,-0.10
2019-01-31T06:46:18.372Z,0.00
2019-01-31T06:49:24.328Z,-0.20
2019-01-31T06:52:28.007Z,-0.10
2019-01-31T06:55:31.683Z,0.00
2019-01-31T06:58:35.406Z,0.10
2019-01-31T07:01:39.033Z,0.20
2019-01-31T07:04:42.779Z,0.30
2019-01-31T07:07:46.403Z,0.20
2019-01-31T07:10:50.010Z,0.30
2019-01-31T07:13:53.681Z,0.40
2019-01-31T07:16:57.372Z,0.40
2019-01-31T07:20:01.022Z,0.50
2019-01-31T07:23:04.683Z,0.50
2019-01-31T07:26:08.320Z,0.50
2019-01-31T07:29:12.073Z,0.60
2019-01-31T07:32:15.704Z,0.70
2019-01-31T07:35:19.549Z,0.80
2019-01-31T07:38:23.184Z,1.10
2019-01-31T07:41:26.878Z,1.40
2019-01-31T07:44:30.770Z,1.60
2019-01-31T07:47:36.751Z,1.90
2019-01-31T07:50:40.035Z,2.00
2019-01-31T07:53:43.673Z,2.00
2019-01-31T07:56:47.395Z,2.10
2019-01-31T07:59:51.095Z,2.00
2019-01-31T08:02:54.742Z,2.00
2019-01-31T08:05:58.468Z,2.00
2019-01-31T08:09:02.660Z,2.10
2019-01-31T08:12:06.353Z,2.30
2019-01-31T08:15:13.255Z,2.50
2019-01-31T08:18:16.946Z,2.60
2019-01-31T08:21:20.751Z,2.70
2019-01-31T08:24:24.442Z,2.70
2019-01-31T08:27:28.107Z,2.70
2019-01-31T08:30:37.873Z,2.60
2019-01-31T08:33:44.219Z,2.70
2019-01-31T08:36:50.858Z,2.70
2019-01-31T08:39:54.517Z,2.70
2019-01-31T08:42:58.214Z,2.60
2019-01-31T08:46:01.968Z,2.70
2019-01-31T08:49:05.740Z,2.80
2019-01-31T08:52:09.457Z,2.70
2019-01-31T08:55:13.104Z,2.80
2019-01-31T08:58:16.966Z,2.80
2019-01-31T09:01:21.554Z,3.00
2019-01-31T09:04:25.249Z,3.10
2019-01-31T09:07:29.327Z,3.30
2019-01-31T09:10:38.757Z,3.40
2019-01-31T09:13:42.411Z,3.70
2019-01-31T09:16:46.098Z,3.90
2019-01-31T09:19:49.732Z,4.00
2019-01-31T09:23:12.935Z,4.30
2019-01-31T09:26:22.275Z,4.00
2019-01-31T09:29:34.813Z,4.30
2019-01-31T09:32:53.735Z,4.90
2019-01-31T09:36:32.088Z,5.00
2019-01-31T09:39:44.727Z,5.10
2019-01-31T09:42:57.284Z,5.20
2019-01-31T09:46:24.633Z,5.50
2019-01-31T09:49:46.312Z,5.80
2019-01-31T09:53:13.348Z,5.60
2019-01-31T09:56:52.503Z,5.30
2019-01-31T10:00:08.290Z,4.90
2019-01-31T10:03:17.629Z,4.90
2019-01-31T10:06:36.010Z,5.10
2019-01-31T10:09:42.829Z,5.60
2019-01-31T10:12:55.373Z,6.80
2019-01-31T10:16:19.681Z,7.70
2019-01-31T10:20:07.441Z,8.50
2019-01-31T10:23:40.733Z,8.80
2019-01-31T10:26:53.050Z,10.00
2019-01-31T10:30:19.579Z,10.00
2019-01-31T10:33:43.034Z,10.10
2019-01-31T10:36:55.747Z,10.80
2019-01-31T10:44:29.340Z,11.80
2019-01-31T10:55:06.611Z,12.10
2019-01-31T11:02:08.515Z,12.00
2019-01-31T11:05:51.457Z,12.50
2019-01-31T11:09:26.363Z,10.80
2019-01-31T11:13:00.868Z,10.10
2019-01-31T11:16:51.545Z,9.00
2019-01-31T11:20:25.062Z,7.50
2019-01-31T11:23:55.264Z,7.00
2019-01-31T11:27:16.473Z,6.60
2019-01-31T11:30:23.320Z,6.20
2019-01-31T11:33:53.145Z,6.10
2019-01-31T11:36:59.507Z,6.00
2019-01-31T11:40:27.290Z,6.30
2019-01-31T11:43:55.200Z,6.30
2019-01-31T11:47:13.980Z,6.30
2019-01-31T11:50:26.389Z,6.00
2019-01-31T11:53:35.724Z,5.70
2019-01-31T11:57:12.631Z,5.70
2019-01-31T12:00:17.896Z,5.60
2019-01-31T12:03:21.633Z,5.30
2019-01-31T12:06:25.363Z,5.40
2019-01-31T12:09:29.169Z,5.40
2019-01-31T12:12:32.894Z,5.70
2019-01-31T12:15:36.617Z,5.80
2019-01-31T12:18:40.267Z,5.80
2019-01-31T12:21:44.009Z,5.70
2019-01-31T12:24:47.641Z,5.60
2019-01-31T12:27:51.260Z,5.50
2019-01-31T12:30:57.771Z,5.60
2019-01-31T12:34:01.519Z,5.80
2019-01-31T12:37:05.194Z,5.60
2019-01-31T12:40:14.425Z,5.80
2019-01-31T12:43:18.098Z,5.80
2019-01-31T12:46:21.954Z,5.20
2019-01-31T12:49:27.761Z,5.40
2019-01-31T12:52:32.235Z,5.50
2019-01-31T12:55:35.917Z,5.70
2019-01-31T12:58:39.889Z,6.00
2019-01-31T13:01:43.571Z,6.00
2019-01-31T13:04:49.436Z,6.10
2019-01-31T13:07:56.313Z,6.10
2019-01-31T13:10:59.993Z,5.90
2019-01-31T13:14:04.392Z,5.80
2019-01-31T13:17:09.965Z,6.00
2019-01-31T13:20:18.041Z,6.10
2019-01-31T13:23:21.994Z,6.00
2019-01-31T13:26:27.101Z,5.70
2019-01-31T13:29:32.138Z,5.40
2019-01-31T13:32:37.533Z,5.50
2019-01-31T13:35:42.264Z,5.50
2019-01-31T13:39:15.360Z,5.50
2019-01-31T13:42:17.463Z,5.10
2019-01-31T13:45:28.648Z,5.20
2019-01-31T13:48:37.591Z,4.90
2019-01-31T13:51:44.235Z,4.80
2019-01-31T13:54:51.136Z,5.00
2019-01-31T13:57:56.128Z,5.10
2019-01-31T14:00:59.883Z,5.10
2019-01-31T14:04:04.956Z,4.90
2019-01-31T14:07:10.885Z,4.70
2019-01-31T14:10:27.932Z,4.60
2019-01-31T14:13:31.762Z,4.50
2019-01-31T14:16:47.192Z,4.30
2019-01-31T14:19:42.914Z,4.20
2019-01-31T14:22:46.656Z,4.10
2019-01-31T14:25:50.424Z,4.10
2019-01-31T14:28:54.146Z,4.00
2019-01-31T14:32:04.508Z,4.00
2019-01-31T14:35:11.069Z,3.90
2019-01-31T14:38:14.862Z,4.00
2019-01-31T14:41:19.968Z,3.90
2019-01-31T14:44:24.902Z,3.70
2019-01-31T14:47:30.324Z,3.60
2019-01-31T14:50:36.337Z,3.70
2019-01-31T14:53:42.360Z,3.60
2019-01-31T14:56:47.122Z,3.70
2019-01-31T14:59:51.719Z,3.60
2019-01-31T15:02:58.703Z,3.50
2019-01-31T15:06:03.494Z,3.50
2019-01-31T15:09:08.814Z,3.50
2019-01-31T15:12:17.127Z,3.50
2019-01-31T15:15:20.931Z,3.40
2019-01-31T15:18:24.744Z,3.40
2019-01-31T15:21:28.622Z,3.30
2019-01-31T15:24:34.012Z,3.30
2019-01-31T15:27:37.873Z,3.20
2019-01-31T15:30:46.882Z,3.10
2019-01-31T15:33:55.612Z,3.10
2019-01-31T15:37:02.086Z,3.00
2019-01-31T15:40:08.150Z,3.00
2019-01-31T15:43:11.902Z,2.90
2019-01-31T15:46:18.086Z,2.90
2019-01-31T15:49:22.283Z,2.80
2019-01-31T15:52:26.762Z,2.70
2019-01-31T15:55:30.841Z,2.70
2019-01-31T15:58:34.750Z,2.70
2019-01-31T16:01:40.214Z,2.60
2019-01-31T16:04:43.981Z,2.60
2019-01-31T16:07:47.699Z,2.50
2019-01-31T16:10:51.483Z,2.50
2019-01-31T16:13:55.312Z,2.40
2019-01-31T16:16:59.097Z,2.30
2019-01-31T16:20:02.911Z,2.20
2019-01-31T16:23:07.140Z,2.20
2019-01-31T16:26:11.118Z,2.10
2019-01-31T16:29:17.844Z,1.90
2019-01-31T16:32:20.908Z,1.70
2019-01-31T16:35:24.647Z,1.60
2019-01-31T16:38:28.795Z,1.40
2019-01-31T16:41:33.351Z,1.20
2019-01-31T16:44:38.849Z,1.00
2019-01-31T16:47:42.696Z,0.90
2019-01-31T16:50:46.499Z,0.60
2019-01-31T16:53:50.378Z,0.40
2019-01-31T16:56:54.223Z,0.30
2019-01-31T16:59:57.982Z,0.30
2019-01-31T17:03:07.196Z,0.10
2019-01-31T17:06:12.638Z,0.00
2019-01-31T17:09:16.485Z,-0.10
2019-01-31T17:12:21.529Z,0.00
2019-01-31T17:15:25.350Z,0.10
2019-01-31T17:18:29.128Z,0.00
2019-01-31T17:21:33.209Z,-0.10
2019-01-31T17:24:39.506Z,-0.20
2019-01-31T17:27:43.353Z,-0.20
2019-01-31T17:30:48.670Z,-0.30
2019-01-31T17:33:52.803Z,-0.30
2019-01-31T17:36:56.803Z,-0.40
2019-01-31T17:40:00.646Z,-0.50
2019-01-31T17:43:06.591Z,-0.60
2019-01-31T17:46:12.180Z,-0.50
2019-01-31T17:49:17.714Z,-0.50
2019-01-31T17:52:21.702Z,-0.80
2019-01-31T17:55:27.879Z,-0.80
2019-01-31T17:58:31.778Z,-1.00
2019-01-31T18:01:36.175Z,-1.10
2019-01-31T18:04:41.614Z,-1.20
2019-01-31T18:07:45.335Z,-1.30
2019-01-31T18:10:49.354Z,-1.40
2019-01-31T18:13:54.842Z,-1.40
2019-01-31T18:16:59.509Z,-1.60
2019-01-31T18:20:04.423Z,-1.70
2019-01-31T18:23:08.316Z,-1.70
2019-01-31T18:26:12.164Z,-1.70
2019-01-31T18:29:17.475Z,-1.80
2019-01-31T18:32:21.313Z,-1.90
2019-01-31T18:35:25.133Z,-2.00
2019-01-31T18:38:30.725Z,-2.10
2019-01-31T18:41:34.460Z,-2.10
2019-01-31T18:44:38.310Z,-2.10
2019-01-31T18:47:42.438Z,-2.00
2019-01-31T18:50:46.338Z,-2.00
2019-01-31T18:53:50.293Z,-2.10
2019-01-31T18:56:54.101Z,-2.10
2019-01-31T18:59:57.932Z,-2.10
2019-01-31T19:03:01.652Z,-2.20
2019-01-31T19:06:05.495Z,-2.30
2019-01-31T19:09:09.432Z,-2.30
2019-01-31T19:12:13.376Z,-2.30
2019-01-31T19:15:20.527Z,-2.30
2019-01-31T19:18:24.458Z,-2.30
2019-01-31T19:21:30.394Z,-2.30
2019-01-31T19:24:34.335Z,-2.30
2019-01-31T19:27:38.115Z,-2.40
2019-01-31T19:30:41.895Z,-2.40
2019-01-31T19:33:46.635Z,-2.50
2019-01-31T19:36:50.497Z,-2.60
2019-01-31T19:39:54.263Z,-2.70
2019-01-31T19:42:58.159Z,-2.70
2019-01-31T19:46:15.162Z,-2.70
2019-01-31T19:49:09.921Z,-2.70
2019-01-31T19:52:15.558Z,-2.80
2019-01-31T19:55:20.091Z,-2.90
2019-01-31T19:58:24.167Z,-2.90
2019-01-31T20:01:28.059Z,-2.90
2019-01-31T20:04:34.671Z,-2.80
2019-01-31T20:07:37.306Z,-2.80
2019-01-31T20:10:41.116Z,-2.80
2019-01-31T20:13:44.894Z,-2.80
2019-01-31T20:16:48.926Z,-2.80
2019-01-31T20:19:52.712Z,-2.70
2019-01-31T20:22:56.816Z,-2.80
2019-01-31T20:26:00.701Z,-2.70
2019-01-31T20:29:04.712Z,-2.80
2019-01-31T20:32:08.665Z,-2.80
2019-01-31T20:35:17.330Z,-2.70
2019-01-31T20:38:21.129Z,-2.80
2019-01-31T20:41:27.311Z,-2.80
2019-01-31T20:44:30.362Z,-2.90
2019-01-31T20:47:34.253Z,-2.90
2019-01-31T20:50:39.119Z,-2.80
2019-01-31T20:53:43.018Z,-2.80
2019-01-31T20:56:46.803Z,-2.80
2019-01-31T20:59:50.659Z,-2.80
2019-01-31T21:02:54.878Z,-2.80
2019-01-31T21:05:58.686Z,-2.70
2019-01-31T21:09:02.481Z,-3.00
2019-01-31T21:12:06.498Z,-3.10
2019-01-31T21:15:18.808Z,-3.20
2019-01-31T21:18:22.583Z,-3.20
2019-01-31T21:21:26.429Z,-3.30
2019-01-31T21:24:30.329Z,-3.40
2019-01-31T21:27:34.077Z,-3.50
2019-01-31T21:30:39.291Z,-3.50
2019-01-31T21:33:43.022Z,-3.50
2019-01-31T21:36:46.896Z,-3.50
2019-01-31T21:39:50.734Z,-3.60
2019-01-31T21:42:54.530Z,-3.60
2019-01-31T21:45:58.316Z,-3.50
2019-01-31T21:49:02.264Z,-3.50
2019-01-31T21:52:07.920Z,-3.60
2019-01-31T21:55:13.040Z,-3.60
2019-01-31T21:58:16.815Z,-3.60
2019-01-31T22:01:20.547Z,-3.60
2019-01-31T22:04:24.320Z,-3.60
2019-01-31T22:07:28.051Z,-3.60
2019-01-31T22:10:31.833Z,-3.60
2019-01-31T22:13:35.619Z,-3.70
2019-01-31T22:16:39.400Z,-3.60
2019-01-31T22:19:43.157Z,-3.60
2019-01-31T22:22:46.935Z,-3.60
2019-01-31T22:25:50.831Z,-3.50
2019-01-31T22:28:54.650Z,-3.50
2019-01-31T22:31:58.798Z,-3.50
2019-01-31T22:35:02.590Z,-3.50
2019-01-31T22:38:06.431Z,-3.50
2019-01-31T22:41:10.434Z,-3.50
2019-01-31T22:44:14.408Z,-3.50
2019-01-31T22:47:25.950Z,-3.50
2019-01-31T22:50:24.134Z,-3.50
2019-01-31T22:53:27.942Z,-3.50
2019-01-31T22:56:31.812Z,-3.50
2019-01-31T22:59:35.619Z,-3.50
2019-01-31T23:02:39.443Z,-3.70
2019-01-31T23:05:43.304Z,-3.60
2019-01-31T23:08:47.070Z,-3.60
2019-01-31T23:11:50.844Z,-3.40
2019-01-31T23:14:54.618Z,-3.20
2019-01-31T23:17:58.968Z,-3.30
2019-01-31T23:21:02.758Z,-3.30
2019-01-31T23:24:06.524Z,-3.20
2019-01-31T23:27:10.308Z,-3.30
2019-01-31T23:30:15.955Z,-3.20
2019-01-31T23:33:19.830Z,-3.20
2019-01-31T23:36:23.591Z,-3.20
2019-01-31T23:39:27.330Z,-3.20
2019-01-31T23:42:31.119Z,-3.30
2019-01-31T23:45:34.835Z,-3.30
2019-01-31T23:48:38.600Z,-3.30
2019-01-31T23:51:42.324Z,-3.30
2019-01-31T23:54:46.155Z,-3.40
2019-01-31T23:57:49.901Z,-3.50
